This is the latest recevied weather packets stored in our database for station/object SV1TQE-1. If no packets are shown the sender has not sent any weather packets the latest 10 day(s).
| Time | Temp. | Humidity | Pressure | Rain* | Wind** | Luminosity | Snow |
|---|---|---|---|---|---|---|---|
| 1787724428 | 34.44° C | 55% | 1017.7 hPa | - | - | - | - |
| 1787723528 | 33.89° C | 57% | 1017.7 hPa | - | - | - | - |
| 1787722631 | 33.33° C | 61% | 1017.7 hPa | - | - | - | - |
| 1787719917 | 30.56° C | 74% | 1017.5 hPa | - | - | - | - |
| 1787719017 | 29.44° C | 82% | 1017.6 hPa | - | - | - | - |
| 1787718117 | 28.33° C | 84% | 1017.5 hPa | - | - | - | - |
| 1787716316 | 27.78° C | 95% | 1017.4 hPa | - | - | - | - |
| 1787715416 | 27.78° C | 100% | 1017.4 hPa | - | - | - | - |
| 1787714516 | 27.78° C | 100% | 1017.3 hPa | - | - | - | - |
| 1787713616 | 27.78° C | 100% | 1017.4 hPa | - | - | - | - |
| 1787712716 | 27.78° C | 100% | 1017.4 hPa | - | - | - | - |
| 1787711816 | 27.78° C | 100% | 1017.5 hPa | - | - | - | - |
| 1787710916 | 27.78° C | 100% | 1017.6 hPa | - | - | - | - |
| 1787710016 | 27.78° C | 100% | 1017.6 hPa | - | - | - | - |
| 1787709116 | 27.78° C | 100% | 1017.7 hPa | - | - | - | - |
| 1787708215 | 27.78° C | 100% | 1017.6 hPa | - | - | - | - |
| 1787707315 | 27.78° C | 100% | 1017.8 hPa | - | - | - | - |
| 1787706415 | 28.33° C | 100% | 1017.9 hPa | - | - | - | - |
| 1787705515 | 28.33° C | 100% | 1017.9 hPa | - | - | - | - |
| 1787704615 | 28.33° C | 89% | 1018 hPa | - | - | - | - |
| 1787703715 | 28.33° C | 86% | 1018.2 hPa | - | - | - | - |
| 1787702868 | 28.33° C | 86% | 1018.1 hPa | - | - | - | - |
| 1787701968 | 28.33° C | 94% | 1018.2 hPa | - | - | - | - |
| 1787701069 | 28.33° C | 94% | 1018.3 hPa | - | - | - | - |
| 1787700167 | 28.33° C | 92% | 1018.4 hPa | - | - | - | - |
* Rain since midnight (hover to see other rain measurements)
** Current wind speed in m/s (hover to see current wind gust speed)